sensor_id;sensor_type;location;lat;lon;timestamp;P1;durP1;ratioP1;P2;durP2;ratioP2
9248;SDS011;4660;41.768;26.198;2023-03-14T00:01:15;8.80;;;6.83;;
9248;SDS011;4660;41.768;26.198;2023-03-14T00:03:42;12.57;;;6.80;;
9248;SDS011;4660;41.768;26.198;2023-03-14T00:06:08;12.40;;;6.13;;
9248;SDS011;4660;41.768;26.198;2023-03-14T00:08:35;16.17;;;5.73;;
9248;SDS011;4660;41.768;26.198;2023-03-14T00:11:05;9.90;;;6.03;;
9248;SDS011;4660;41.768;26.198;2023-03-14T00:13:36;14.37;;;7.13;;
9248;SDS011;4660;41.768;26.198;2023-03-14T00:16:05;10.20;;;6.03;;
9248;SDS011;4660;41.768;26.198;2023-03-14T00:18:33;7.17;;;5.23;;
9248;SDS011;4660;41.768;26.198;2023-03-14T00:20:59;7.47;;;4.83;;
9248;SDS011;4660;41.768;26.198;2023-03-14T00:23:26;9.30;;;5.43;;
9248;SDS011;4660;41.768;26.198;2023-03-14T00:25:53;4.47;;;3.80;;
9248;SDS011;4660;41.768;26.198;2023-03-14T00:28:22;4.67;;;3.03;;
9248;SDS011;4660;41.768;26.198;2023-03-14T00:30:48;4.53;;;3.63;;
9248;SDS011;4660;41.768;26.198;2023-03-14T00:33:14;9.33;;;4.60;;
9248;SDS011;4660;41.768;26.198;2023-03-14T00:35:39;6.00;;;4.20;;
9248;SDS011;4660;41.768;26.198;2023-03-14T00:38:04;5.67;;;3.67;;
9248;SDS011;4660;41.768;26.198;2023-03-14T00:40:30;6.80;;;3.50;;
9248;SDS011;4660;41.768;26.198;2023-03-14T00:42:55;3.73;;;2.70;;
9248;SDS011;4660;41.768;26.198;2023-03-14T00:45:21;6.40;;;3.70;;
9248;SDS011;4660;41.768;26.198;2023-03-14T00:47:47;7.50;;;4.23;;
9248;SDS011;4660;41.768;26.198;2023-03-14T00:50:12;7.63;;;3.67;;
9248;SDS011;4660;41.768;26.198;2023-03-14T00:52:38;5.27;;;3.17;;
9248;SDS011;4660;41.768;26.198;2023-03-14T00:55:03;3.30;;;1.83;;
9248;SDS011;4660;41.768;26.198;2023-03-14T00:57:29;1.70;;;1.30;;
9248;SDS011;4660;41.768;26.198;2023-03-14T00:59:55;2.00;;;1.40;;
9248;SDS011;4660;41.768;26.198;2023-03-14T01:02:20;1.33;;;1.10;;
9248;SDS011;4660;41.768;26.198;2023-03-14T01:04:47;3.33;;;1.60;;
9248;SDS011;4660;41.768;26.198;2023-03-14T01:07:13;2.13;;;1.43;;
9248;SDS011;4660;41.768;26.198;2023-03-14T01:09:39;1.83;;;1.40;;
9248;SDS011;4660;41.768;26.198;2023-03-14T01:12:05;3.80;;;2.67;;
9248;SDS011;4660;41.768;26.198;2023-03-14T01:14:30;4.97;;;3.03;;
9248;SDS011;4660;41.768;26.198;2023-03-14T01:16:56;5.47;;;3.63;;
9248;SDS011;4660;41.768;26.198;2023-03-14T01:19:27;7.20;;;4.13;;
9248;SDS011;4660;41.768;26.198;2023-03-14T01:21:53;7.13;;;3.70;;
9248;SDS011;4660;41.768;26.198;2023-03-14T01:24:19;5.27;;;3.93;;
9248;SDS011;4660;41.768;26.198;2023-03-14T01:26:45;6.40;;;4.47;;
9248;SDS011;4660;41.768;26.198;2023-03-14T01:29:11;4.47;;;3.87;;
9248;SDS011;4660;41.768;26.198;2023-03-14T01:31:37;6.13;;;4.77;;
9248;SDS011;4660;41.768;26.198;2023-03-14T01:34:02;4.40;;;3.60;;
9248;SDS011;4660;41.768;26.198;2023-03-14T01:36:28;3.47;;;2.83;;
9248;SDS011;4660;41.768;26.198;2023-03-14T01:38:53;7.87;;;3.57;;
9248;SDS011;4660;41.768;26.198;2023-03-14T01:41:20;6.60;;;4.00;;
9248;SDS011;4660;41.768;26.198;2023-03-14T01:43:48;6.70;;;4.90;;
9248;SDS011;4660;41.768;26.198;2023-03-14T01:51:49;5.93;;;3.90;;
9248;SDS011;4660;41.768;26.198;2023-03-14T01:54:33;6.47;;;4.63;;
9248;SDS011;4660;41.768;26.198;2023-03-14T01:57:16;6.90;;;4.67;;
9248;SDS011;4660;41.768;26.198;2023-03-14T01:59:47;4.10;;;3.60;;
9248;SDS011;4660;41.768;26.198;2023-03-14T02:02:18;8.07;;;4.70;;
9248;SDS011;4660;41.768;26.198;2023-03-14T02:04:44;6.30;;;4.53;;
9248;SDS011;4660;41.768;26.198;2023-03-14T02:09:39;7.80;;;4.23;;
9248;SDS011;4660;41.768;26.198;2023-03-14T02:12:05;7.43;;;3.90;;
9248;SDS011;4660;41.768;26.198;2023-03-14T02:14:33;5.67;;;4.00;;
9248;SDS011;4660;41.768;26.198;2023-03-14T02:17:00;5.23;;;3.80;;
9248;SDS011;4660;41.768;26.198;2023-03-14T02:19:32;8.87;;;4.97;;
9248;SDS011;4660;41.768;26.198;2023-03-14T02:22:02;6.70;;;3.80;;
9248;SDS011;4660;41.768;26.198;2023-03-14T02:29:33;7.40;;;3.80;;
9248;SDS011;4660;41.768;26.198;2023-03-14T02:32:02;5.27;;;3.70;;
9248;SDS011;4660;41.768;26.198;2023-03-14T02:34:28;8.23;;;3.73;;
9248;SDS011;4660;41.768;26.198;2023-03-14T02:36:56;6.90;;;4.50;;
9248;SDS011;4660;41.768;26.198;2023-03-14T02:39:24;7.27;;;3.93;;
9248;SDS011;4660;41.768;26.198;2023-03-14T02:41:56;8.33;;;4.23;;
9248;SDS011;4660;41.768;26.198;2023-03-14T02:44:22;4.40;;;3.70;;
9248;SDS011;4660;41.768;26.198;2023-03-14T02:46:47;8.63;;;4.07;;
9248;SDS011;4660;41.768;26.198;2023-03-14T02:49:13;11.57;;;5.67;;
9248;SDS011;4660;41.768;26.198;2023-03-14T02:51:39;9.47;;;5.57;;
9248;SDS011;4660;41.768;26.198;2023-03-14T02:54:06;9.63;;;5.60;;
9248;SDS011;4660;41.768;26.198;2023-03-14T02:56:32;5.10;;;3.80;;
9248;SDS011;4660;41.768;26.198;2023-03-14T02:58:58;5.60;;;4.13;;
9248;SDS011;4660;41.768;26.198;2023-03-14T03:01:23;10.70;;;4.47;;
9248;SDS011;4660;41.768;26.198;2023-03-14T03:03:49;5.03;;;3.77;;
9248;SDS011;4660;41.768;26.198;2023-03-14T03:06:15;5.23;;;4.03;;
9248;SDS011;4660;41.768;26.198;2023-03-14T03:08:41;3.90;;;3.50;;
9248;SDS011;4660;41.768;26.198;2023-03-14T03:11:07;7.07;;;4.17;;
9248;SDS011;4660;41.768;26.198;2023-03-14T03:13:32;6.10;;;3.03;;
9248;SDS011;4660;41.768;26.198;2023-03-14T03:15:58;11.57;;;8.80;;
9248;SDS011;4660;41.768;26.198;2023-03-14T03:18:24;21.23;;;17.50;;
9248;SDS011;4660;41.768;26.198;2023-03-14T03:20:49;17.90;;;14.13;;
9248;SDS011;4660;41.768;26.198;2023-03-14T03:23:15;14.90;;;11.63;;
9248;SDS011;4660;41.768;26.198;2023-03-14T03:25:41;14.07;;;9.03;;
9248;SDS011;4660;41.768;26.198;2023-03-14T03:28:06;10.00;;;6.63;;
9248;SDS011;4660;41.768;26.198;2023-03-14T03:30:33;12.10;;;6.33;;
9248;SDS011;4660;41.768;26.198;2023-03-14T03:33:02;10.80;;;5.03;;
9248;SDS011;4660;41.768;26.198;2023-03-14T03:35:28;8.13;;;4.40;;
9248;SDS011;4660;41.768;26.198;2023-03-14T03:37:53;7.93;;;4.60;;
9248;SDS011;4660;41.768;26.198;2023-03-14T03:40:19;9.87;;;4.60;;
9248;SDS011;4660;41.768;26.198;2023-03-14T03:42:44;9.53;;;4.60;;
9248;SDS011;4660;41.768;26.198;2023-03-14T03:45:10;6.30;;;4.33;;
9248;SDS011;4660;41.768;26.198;2023-03-14T03:47:35;8.60;;;4.30;;
9248;SDS011;4660;41.768;26.198;2023-03-14T03:50:01;8.83;;;4.70;;
9248;SDS011;4660;41.768;26.198;2023-03-14T03:52:27;7.10;;;3.97;;
9248;SDS011;4660;41.768;26.198;2023-03-14T03:54:53;6.07;;;3.60;;
9248;SDS011;4660;41.768;26.198;2023-03-14T03:57:19;7.73;;;5.00;;
9248;SDS011;4660;41.768;26.198;2023-03-14T03:59:45;9.83;;;5.70;;
9248;SDS011;4660;41.768;26.198;2023-03-14T04:02:10;8.50;;;6.07;;
9248;SDS011;4660;41.768;26.198;2023-03-14T04:04:36;12.47;;;6.33;;
9248;SDS011;4660;41.768;26.198;2023-03-14T04:07:02;14.40;;;6.07;;
9248;SDS011;4660;41.768;26.198;2023-03-14T04:09:28;12.37;;;6.07;;
9248;SDS011;4660;41.768;26.198;2023-03-14T04:11:54;8.37;;;5.17;;
9248;SDS011;4660;41.768;26.198;2023-03-14T04:14:20;12.03;;;5.80;;
9248;SDS011;4660;41.768;26.198;2023-03-14T04:16:45;10.10;;;5.47;;
9248;SDS011;4660;41.768;26.198;2023-03-14T04:19:11;12.63;;;5.87;;
9248;SDS011;4660;41.768;26.198;2023-03-14T04:21:36;12.53;;;5.50;;
9248;SDS011;4660;41.768;26.198;2023-03-14T04:24:05;10.40;;;5.63;;
9248;SDS011;4660;41.768;26.198;2023-03-14T04:26:31;9.97;;;5.97;;
9248;SDS011;4660;41.768;26.198;2023-03-14T04:28:56;9.70;;;5.90;;
9248;SDS011;4660;41.768;26.198;2023-03-14T04:31:22;8.70;;;5.50;;
9248;SDS011;4660;41.768;26.198;2023-03-14T04:33:48;10.93;;;5.93;;
9248;SDS011;4660;41.768;26.198;2023-03-14T04:36:13;7.53;;;5.63;;
9248;SDS011;4660;41.768;26.198;2023-03-14T04:38:39;6.47;;;5.10;;
9248;SDS011;4660;41.768;26.198;2023-03-14T04:41:05;10.03;;;6.10;;
9248;SDS011;4660;41.768;26.198;2023-03-14T04:43:32;9.47;;;6.53;;
9248;SDS011;4660;41.768;26.198;2023-03-14T04:45:58;8.20;;;5.60;;
9248;SDS011;4660;41.768;26.198;2023-03-14T04:48:24;15.90;;;6.07;;
9248;SDS011;4660;41.768;26.198;2023-03-14T04:50:50;10.80;;;6.03;;
9248;SDS011;4660;41.768;26.198;2023-03-14T04:53:16;9.03;;;5.83;;
9248;SDS011;4660;41.768;26.198;2023-03-14T04:55:47;10.17;;;5.67;;
9248;SDS011;4660;41.768;26.198;2023-03-14T04:58:14;10.73;;;6.97;;
9248;SDS011;4660;41.768;26.198;2023-03-14T05:00:39;7.60;;;5.63;;
9248;SDS011;4660;41.768;26.198;2023-03-14T05:03:05;5.63;;;4.73;;
9248;SDS011;4660;41.768;26.198;2023-03-14T05:05:31;5.40;;;4.23;;
9248;SDS011;4660;41.768;26.198;2023-03-14T05:07:56;6.17;;;4.77;;
9248;SDS011;4660;41.768;26.198;2023-03-14T05:10:22;7.07;;;4.87;;
9248;SDS011;4660;41.768;26.198;2023-03-14T05:13:01;7.50;;;5.67;;
9248;SDS011;4660;41.768;26.198;2023-03-14T05:15:30;9.33;;;6.10;;
9248;SDS011;4660;41.768;26.198;2023-03-14T05:20:31;22.37;;;15.20;;
9248;SDS011;4660;41.768;26.198;2023-03-14T05:23:17;22.73;;;15.13;;
9248;SDS011;4660;41.768;26.198;2023-03-14T05:25:43;20.67;;;12.33;;
9248;SDS011;4660;41.768;26.198;2023-03-14T05:28:09;16.13;;;10.93;;
9248;SDS011;4660;41.768;26.198;2023-03-14T05:30:35;15.33;;;8.40;;
9248;SDS011;4660;41.768;26.198;2023-03-14T05:33:00;12.60;;;7.37;;
9248;SDS011;4660;41.768;26.198;2023-03-14T05:35:26;13.33;;;7.83;;
9248;SDS011;4660;41.768;26.198;2023-03-14T05:37:52;11.63;;;7.40;;
9248;SDS011;4660;41.768;26.198;2023-03-14T05:40:19;13.17;;;7.80;;
9248;SDS011;4660;41.768;26.198;2023-03-14T05:42:45;11.57;;;7.80;;
9248;SDS011;4660;41.768;26.198;2023-03-14T05:45:10;12.27;;;8.70;;
9248;SDS011;4660;41.768;26.198;2023-03-14T05:47:36;12.97;;;8.57;;
9248;SDS011;4660;41.768;26.198;2023-03-14T05:50:02;15.10;;;9.30;;
9248;SDS011;4660;41.768;26.198;2023-03-14T05:57:56;16.60;;;10.10;;
9248;SDS011;4660;41.768;26.198;2023-03-14T06:00:21;12.73;;;9.07;;
9248;SDS011;4660;41.768;26.198;2023-03-14T06:02:47;13.07;;;10.17;;
9248;SDS011;4660;41.768;26.198;2023-03-14T06:05:13;13.53;;;8.13;;
9248;SDS011;4660;41.768;26.198;2023-03-14T06:07:39;15.93;;;9.10;;
9248;SDS011;4660;41.768;26.198;2023-03-14T06:10:05;14.20;;;9.13;;
9248;SDS011;4660;41.768;26.198;2023-03-14T06:12:31;15.60;;;8.60;;
9248;SDS011;4660;41.768;26.198;2023-03-14T06:14:57;14.00;;;8.13;;
9248;SDS011;4660;41.768;26.198;2023-03-14T06:17:23;13.23;;;7.53;;
9248;SDS011;4660;41.768;26.198;2023-03-14T06:19:48;11.50;;;6.13;;
9248;SDS011;4660;41.768;26.198;2023-03-14T06:22:13;8.03;;;5.87;;
9248;SDS011;4660;41.768;26.198;2023-03-14T06:24:39;9.67;;;6.27;;
9248;SDS011;4660;41.768;26.198;2023-03-14T06:27:05;10.33;;;6.23;;
9248;SDS011;4660;41.768;26.198;2023-03-14T06:29:30;8.43;;;5.77;;
9248;SDS011;4660;41.768;26.198;2023-03-14T06:31:56;15.57;;;7.17;;
9248;SDS011;4660;41.768;26.198;2023-03-14T06:34:21;27.97;;;12.17;;
9248;SDS011;4660;41.768;26.198;2023-03-14T06:36:47;15.87;;;9.57;;
9248;SDS011;4660;41.768;26.198;2023-03-14T06:39:12;13.43;;;8.43;;
9248;SDS011;4660;41.768;26.198;2023-03-14T06:41:38;16.00;;;8.57;;
9248;SDS011;4660;41.768;26.198;2023-03-14T06:44:04;14.07;;;7.20;;
9248;SDS011;4660;41.768;26.198;2023-03-14T06:46:30;13.77;;;6.87;;
9248;SDS011;4660;41.768;26.198;2023-03-14T06:49:00;9.70;;;6.53;;
9248;SDS011;4660;41.768;26.198;2023-03-14T06:54:01;9.67;;;6.93;;
9248;SDS011;4660;41.768;26.198;2023-03-14T06:56:34;11.80;;;7.00;;
9248;SDS011;4660;41.768;26.198;2023-03-14T06:59:01;12.67;;;7.17;;
9248;SDS011;4660;41.768;26.198;2023-03-14T07:01:31;8.50;;;5.83;;
9248;SDS011;4660;41.768;26.198;2023-03-14T07:04:00;12.13;;;5.73;;
9248;SDS011;4660;41.768;26.198;2023-03-14T07:06:27;10.10;;;5.77;;
9248;SDS011;4660;41.768;26.198;2023-03-14T07:08:56;9.00;;;5.50;;
9248;SDS011;4660;41.768;26.198;2023-03-14T07:11:22;10.10;;;6.37;;
9248;SDS011;4660;41.768;26.198;2023-03-14T07:13:48;7.03;;;5.07;;
9248;SDS011;4660;41.768;26.198;2023-03-14T07:16:14;6.63;;;4.87;;
9248;SDS011;4660;41.768;26.198;2023-03-14T07:18:40;10.87;;;6.30;;
9248;SDS011;4660;41.768;26.198;2023-03-14T07:21:06;9.23;;;5.17;;
9248;SDS011;4660;41.768;26.198;2023-03-14T07:23:33;10.43;;;4.63;;
9248;SDS011;4660;41.768;26.198;2023-03-14T07:25:58;16.40;;;5.63;;
9248;SDS011;4660;41.768;26.198;2023-03-14T07:36:15;10.70;;;4.57;;
9248;SDS011;4660;41.768;26.198;2023-03-14T07:39:06;6.33;;;4.07;;
9248;SDS011;4660;41.768;26.198;2023-03-14T07:45:18;4.60;;;3.17;;
9248;SDS011;4660;41.768;26.198;2023-03-14T07:47:55;5.87;;;3.30;;
9248;SDS011;4660;41.768;26.198;2023-03-14T07:53:19;8.13;;;5.60;;
9248;SDS011;4660;41.768;26.198;2023-03-14T07:55:47;4.80;;;3.63;;
9248;SDS011;4660;41.768;26.198;2023-03-14T07:58:13;2.50;;;2.30;;
9248;SDS011;4660;41.768;26.198;2023-03-14T08:03:17;6.03;;;2.70;;
9248;SDS011;4660;41.768;26.198;2023-03-14T08:05:47;3.73;;;2.87;;
9248;SDS011;4660;41.768;26.198;2023-03-14T08:08:22;4.27;;;3.17;;
9248;SDS011;4660;41.768;26.198;2023-03-14T08:10:48;2.43;;;2.00;;
9248;SDS011;4660;41.768;26.198;2023-03-14T08:19:52;7.80;;;4.17;;
9248;SDS011;4660;41.768;26.198;2023-03-14T08:23:15;6.97;;;4.50;;
9248;SDS011;4660;41.768;26.198;2023-03-14T08:28:16;5.17;;;3.10;;
9248;SDS011;4660;41.768;26.198;2023-03-14T08:37:08;8.33;;;3.20;;
9248;SDS011;4660;41.768;26.198;2023-03-14T08:39:37;2.57;;;1.63;;
9248;SDS011;4660;41.768;26.198;2023-03-14T08:47:13;5.77;;;2.40;;
9248;SDS011;4660;41.768;26.198;2023-03-14T08:49:39;4.27;;;2.20;;
9248;SDS011;4660;41.768;26.198;2023-03-14T08:52:04;6.60;;;3.73;;
9248;SDS011;4660;41.768;26.198;2023-03-14T08:54:30;7.87;;;2.77;;
9248;SDS011;4660;41.768;26.198;2023-03-14T08:56:57;3.40;;;2.13;;
9248;SDS011;4660;41.768;26.198;2023-03-14T08:59:22;10.17;;;6.83;;
9248;SDS011;4660;41.768;26.198;2023-03-14T09:01:48;4.00;;;2.00;;
9248;SDS011;4660;41.768;26.198;2023-03-14T09:04:14;4.90;;;2.10;;
9248;SDS011;4660;41.768;26.198;2023-03-14T09:06:40;3.93;;;1.80;;
9248;SDS011;4660;41.768;26.198;2023-03-14T09:09:06;5.13;;;2.93;;
9248;SDS011;4660;41.768;26.198;2023-03-14T09:11:32;8.73;;;2.53;;
9248;SDS011;4660;41.768;26.198;2023-03-14T09:13:57;5.93;;;1.83;;
9248;SDS011;4660;41.768;26.198;2023-03-14T09:16:23;2.50;;;2.10;;
9248;SDS011;4660;41.768;26.198;2023-03-14T09:18:49;4.77;;;2.30;;
9248;SDS011;4660;41.768;26.198;2023-03-14T09:21:15;4.57;;;2.07;;
9248;SDS011;4660;41.768;26.198;2023-03-14T09:23:40;6.40;;;1.90;;
9248;SDS011;4660;41.768;26.198;2023-03-14T09:26:06;2.90;;;1.60;;
9248;SDS011;4660;41.768;26.198;2023-03-14T09:28:32;8.43;;;2.30;;
9248;SDS011;4660;41.768;26.198;2023-03-14T09:30:57;4.37;;;1.70;;
9248;SDS011;4660;41.768;26.198;2023-03-14T09:33:23;2.33;;;1.50;;
9248;SDS011;4660;41.768;26.198;2023-03-14T09:35:49;2.83;;;1.77;;
9248;SDS011;4660;41.768;26.198;2023-03-14T09:38:15;2.70;;;2.10;;
9248;SDS011;4660;41.768;26.198;2023-03-14T09:40:41;3.73;;;1.40;;
9248;SDS011;4660;41.768;26.198;2023-03-14T09:43:13;2.90;;;1.50;;
9248;SDS011;4660;41.768;26.198;2023-03-14T09:45:40;2.07;;;1.60;;
9248;SDS011;4660;41.768;26.198;2023-03-14T09:48:21;3.00;;;1.80;;
9248;SDS011;4660;41.768;26.198;2023-03-14T09:50:50;2.60;;;1.90;;
9248;SDS011;4660;41.768;26.198;2023-03-14T09:53:19;3.07;;;1.80;;
9248;SDS011;4660;41.768;26.198;2023-03-14T09:55:54;3.17;;;1.87;;
9248;SDS011;4660;41.768;26.198;2023-03-14T09:58:23;1.30;;;1.20;;
9248;SDS011;4660;41.768;26.198;2023-03-14T10:00:50;4.17;;;1.27;;
9248;SDS011;4660;41.768;26.198;2023-03-14T10:03:26;2.30;;;1.57;;
9248;SDS011;4660;41.768;26.198;2023-03-14T10:05:56;4.63;;;2.40;;
9248;SDS011;4660;41.768;26.198;2023-03-14T10:08:22;3.47;;;1.70;;
9248;SDS011;4660;41.768;26.198;2023-03-14T10:10:48;1.70;;;1.30;;
9248;SDS011;4660;41.768;26.198;2023-03-14T10:15:43;2.23;;;1.50;;
9248;SDS011;4660;41.768;26.198;2023-03-14T10:18:24;3.37;;;1.50;;
9248;SDS011;4660;41.768;26.198;2023-03-14T10:21:01;2.63;;;1.50;;
9248;SDS011;4660;41.768;26.198;2023-03-14T10:23:27;3.77;;;2.17;;
9248;SDS011;4660;41.768;26.198;2023-03-14T10:26:00;4.80;;;1.67;;
9248;SDS011;4660;41.768;26.198;2023-03-14T10:28:26;2.10;;;1.47;;
9248;SDS011;4660;41.768;26.198;2023-03-14T10:30:54;2.00;;;1.50;;
9248;SDS011;4660;41.768;26.198;2023-03-14T10:33:22;2.23;;;1.33;;
9248;SDS011;4660;41.768;26.198;2023-03-14T10:36:19;3.63;;;1.67;;
9248;SDS011;4660;41.768;26.198;2023-03-14T10:38:39;1.67;;;1.23;;
9248;SDS011;4660;41.768;26.198;2023-03-14T10:41:26;1.97;;;1.57;;
9248;SDS011;4660;41.768;26.198;2023-03-14T10:43:56;1.87;;;1.40;;
9248;SDS011;4660;41.768;26.198;2023-03-14T10:46:24;2.77;;;1.60;;
9248;SDS011;4660;41.768;26.198;2023-03-14T10:48:53;3.07;;;1.40;;
9248;SDS011;4660;41.768;26.198;2023-03-14T10:51:20;2.20;;;1.13;;
9248;SDS011;4660;41.768;26.198;2023-03-14T10:57:01;2.57;;;1.40;;
9248;SDS011;4660;41.768;26.198;2023-03-14T10:59:37;2.23;;;1.50;;
9248;SDS011;4660;41.768;26.198;2023-03-14T11:23:37;1.50;;;1.10;;
9248;SDS011;4660;41.768;26.198;2023-03-14T11:29:08;1.73;;;1.30;;
9248;SDS011;4660;41.768;26.198;2023-03-14T11:31:35;2.80;;;1.50;;
9248;SDS011;4660;41.768;26.198;2023-03-14T11:37:12;2.63;;;1.00;;
9248;SDS011;4660;41.768;26.198;2023-03-14T11:39:49;2.97;;;1.30;;
9248;SDS011;4660;41.768;26.198;2023-03-14T11:42:21;2.90;;;1.23;;
9248;SDS011;4660;41.768;26.198;2023-03-14T11:44:48;2.03;;;1.37;;
9248;SDS011;4660;41.768;26.198;2023-03-14T11:47:15;6.13;;;2.00;;
9248;SDS011;4660;41.768;26.198;2023-03-14T11:52:48;1.83;;;1.23;;
9248;SDS011;4660;41.768;26.198;2023-03-14T11:55:24;2.87;;;1.30;;
9248;SDS011;4660;41.768;26.198;2023-03-14T11:57:53;1.80;;;1.23;;
9248;SDS011;4660;41.768;26.198;2023-03-14T12:00:25;2.80;;;1.20;;
9248;SDS011;4660;41.768;26.198;2023-03-14T12:11:08;1.30;;;1.20;;
9248;SDS011;4660;41.768;26.198;2023-03-14T12:13:49;4.80;;;1.30;;
9248;SDS011;4660;41.768;26.198;2023-03-14T12:18:48;6.47;;;2.43;;
9248;SDS011;4660;41.768;26.198;2023-03-14T12:21:13;4.63;;;2.10;;
9248;SDS011;4660;41.768;26.198;2023-03-14T12:26:15;5.77;;;1.73;;
9248;SDS011;4660;41.768;26.198;2023-03-14T12:28:44;2.33;;;1.40;;
9248;SDS011;4660;41.768;26.198;2023-03-14T12:39:31;1.53;;;1.40;;
9248;SDS011;4660;41.768;26.198;2023-03-14T12:42:12;2.10;;;1.43;;
9248;SDS011;4660;41.768;26.198;2023-03-14T12:44:52;3.53;;;1.60;;
9248;SDS011;4660;41.768;26.198;2023-03-14T12:47:47;2.90;;;1.63;;
9248;SDS011;4660;41.768;26.198;2023-03-14T13:00:57;4.32;;;1.45;;
9248;SDS011;4660;41.768;26.198;2023-03-14T13:06:02;5.80;;;2.30;;
9248;SDS011;4660;41.768;26.198;2023-03-14T13:11:18;2.93;;;1.47;;
9248;SDS011;4660;41.768;26.198;2023-03-14T13:24:32;1.80;;;1.20;;
9248;SDS011;4660;41.768;26.198;2023-03-14T13:27:00;1.50;;;1.20;;
9248;SDS011;4660;41.768;26.198;2023-03-14T13:29:27;2.83;;;2.10;;
9248;SDS011;4660;41.768;26.198;2023-03-14T13:31:57;2.93;;;1.70;;
9248;SDS011;4660;41.768;26.198;2023-03-14T13:34:26;5.10;;;2.70;;
9248;SDS011;4660;41.768;26.198;2023-03-14T13:36:55;2.00;;;1.40;;
9248;SDS011;4660;41.768;26.198;2023-03-14T13:53:17;2.10;;;1.40;;
9248;SDS011;4660;41.768;26.198;2023-03-14T13:55:43;3.60;;;2.20;;
9248;SDS011;4660;41.768;26.198;2023-03-14T13:58:29;3.15;;;1.70;;
9248;SDS011;4660;41.768;26.198;2023-03-14T14:03:27;7.70;;;1.80;;
9248;SDS011;4660;41.768;26.198;2023-03-14T14:05:55;3.87;;;1.60;;
9248;SDS011;4660;41.768;26.198;2023-03-14T14:13:33;2.13;;;1.90;;
9248;SDS011;4660;41.768;26.198;2023-03-14T14:21:12;4.40;;;2.40;;
9248;SDS011;4660;41.768;26.198;2023-03-14T14:26:19;4.88;;;2.13;;
9248;SDS011;4660;41.768;26.198;2023-03-14T14:29:00;8.77;;;1.93;;
9248;SDS011;4660;41.768;26.198;2023-03-14T14:36:32;2.77;;;1.73;;
9248;SDS011;4660;41.768;26.198;2023-03-14T14:41:52;3.80;;;2.17;;
9248;SDS011;4660;41.768;26.198;2023-03-14T14:44:19;4.57;;;3.07;;
9248;SDS011;4660;41.768;26.198;2023-03-14T14:46:50;5.03;;;2.80;;
9248;SDS011;4660;41.768;26.198;2023-03-14T14:49:18;2.50;;;1.90;;
9248;SDS011;4660;41.768;26.198;2023-03-14T14:54:33;3.00;;;2.70;;
9248;SDS011;4660;41.768;26.198;2023-03-14T14:57:39;3.53;;;2.07;;
9248;SDS011;4660;41.768;26.198;2023-03-14T15:00:07;4.33;;;2.80;;
9248;SDS011;4660;41.768;26.198;2023-03-14T15:02:46;6.20;;;2.93;;
9248;SDS011;4660;41.768;26.198;2023-03-14T15:08:38;4.27;;;2.47;;
9248;SDS011;4660;41.768;26.198;2023-03-14T15:11:27;3.50;;;2.10;;
9248;SDS011;4660;41.768;26.198;2023-03-14T15:13:53;4.60;;;2.75;;
9248;SDS011;4660;41.768;26.198;2023-03-14T15:16:23;4.87;;;2.53;;
9248;SDS011;4660;41.768;26.198;2023-03-14T15:18:55;4.47;;;2.47;;
9248;SDS011;4660;41.768;26.198;2023-03-14T15:24:00;3.90;;;2.40;;
9248;SDS011;4660;41.768;26.198;2023-03-14T15:26:29;3.60;;;2.83;;
9248;SDS011;4660;41.768;26.198;2023-03-14T15:28:59;6.00;;;2.47;;
9248;SDS011;4660;41.768;26.198;2023-03-14T15:36:53;4.75;;;3.17;;
9248;SDS011;4660;41.768;26.198;2023-03-14T15:39:19;6.43;;;4.60;;
9248;SDS011;4660;41.768;26.198;2023-03-14T15:41:55;5.93;;;4.07;;
9248;SDS011;4660;41.768;26.198;2023-03-14T15:44:22;6.13;;;3.93;;
9248;SDS011;4660;41.768;26.198;2023-03-14T15:46:48;6.75;;;4.70;;
9248;SDS011;4660;41.768;26.198;2023-03-14T15:49:14;5.97;;;3.50;;
9248;SDS011;4660;41.768;26.198;2023-03-14T15:51:40;6.97;;;4.13;;
9248;SDS011;4660;41.768;26.198;2023-03-14T15:54:09;6.68;;;3.95;;
9248;SDS011;4660;41.768;26.198;2023-03-14T15:56:36;9.30;;;4.57;;
9248;SDS011;4660;41.768;26.198;2023-03-14T15:59:02;6.63;;;4.27;;
9248;SDS011;4660;41.768;26.198;2023-03-14T16:01:28;5.50;;;3.33;;
9248;SDS011;4660;41.768;26.198;2023-03-14T16:03:56;6.17;;;3.20;;
9248;SDS011;4660;41.768;26.198;2023-03-14T16:06:34;5.67;;;3.20;;
9248;SDS011;4660;41.768;26.198;2023-03-14T16:09:01;7.20;;;4.20;;
9248;SDS011;4660;41.768;26.198;2023-03-14T16:11:26;3.93;;;2.97;;
9248;SDS011;4660;41.768;26.198;2023-03-14T16:13:52;6.40;;;3.80;;
9248;SDS011;4660;41.768;26.198;2023-03-14T16:16:18;6.97;;;4.20;;
9248;SDS011;4660;41.768;26.198;2023-03-14T16:18:44;9.07;;;5.07;;
9248;SDS011;4660;41.768;26.198;2023-03-14T16:21:16;8.00;;;4.60;;
9248;SDS011;4660;41.768;26.198;2023-03-14T16:23:44;10.97;;;3.87;;
9248;SDS011;4660;41.768;26.198;2023-03-14T16:26:11;7.90;;;4.73;;
9248;SDS011;4660;41.768;26.198;2023-03-14T16:28:39;10.13;;;4.70;;
9248;SDS011;4660;41.768;26.198;2023-03-14T16:31:06;10.87;;;4.83;;
9248;SDS011;4660;41.768;26.198;2023-03-14T16:33:43;8.17;;;3.90;;
9248;SDS011;4660;41.768;26.198;2023-03-14T16:36:10;6.37;;;3.87;;
9248;SDS011;4660;41.768;26.198;2023-03-14T16:38:37;8.13;;;3.67;;
9248;SDS011;4660;41.768;26.198;2023-03-14T16:41:05;11.50;;;5.00;;
9248;SDS011;4660;41.768;26.198;2023-03-14T16:43:34;4.67;;;3.00;;
9248;SDS011;4660;41.768;26.198;2023-03-14T16:46:03;4.63;;;2.87;;
9248;SDS011;4660;41.768;26.198;2023-03-14T16:48:30;3.30;;;2.70;;
9248;SDS011;4660;41.768;26.198;2023-03-14T16:50:56;4.33;;;2.73;;
9248;SDS011;4660;41.768;26.198;2023-03-14T16:53:21;6.87;;;3.10;;
9248;SDS011;4660;41.768;26.198;2023-03-14T16:55:48;5.77;;;3.20;;
9248;SDS011;4660;41.768;26.198;2023-03-14T16:58:14;5.97;;;4.00;;
9248;SDS011;4660;41.768;26.198;2023-03-14T17:00:40;9.67;;;5.07;;
9248;SDS011;4660;41.768;26.198;2023-03-14T17:03:06;7.33;;;5.00;;
9248;SDS011;4660;41.768;26.198;2023-03-14T17:05:31;7.93;;;5.30;;
9248;SDS011;4660;41.768;26.198;2023-03-14T17:07:57;10.63;;;5.53;;
9248;SDS011;4660;41.768;26.198;2023-03-14T17:10:23;20.77;;;12.07;;
9248;SDS011;4660;41.768;26.198;2023-03-14T17:12:49;12.00;;;7.33;;
9248;SDS011;4660;41.768;26.198;2023-03-14T17:15:15;36.80;;;21.13;;
9248;SDS011;4660;41.768;26.198;2023-03-14T17:17:41;28.87;;;14.13;;
9248;SDS011;4660;41.768;26.198;2023-03-14T17:20:06;19.90;;;9.60;;
9248;SDS011;4660;41.768;26.198;2023-03-14T17:22:33;15.70;;;9.67;;
9248;SDS011;4660;41.768;26.198;2023-03-14T17:24:59;27.80;;;14.67;;
9248;SDS011;4660;41.768;26.198;2023-03-14T17:27:26;36.20;;;16.83;;
9248;SDS011;4660;41.768;26.198;2023-03-14T17:29:52;34.97;;;14.27;;
9248;SDS011;4660;41.768;26.198;2023-03-14T17:32:18;35.43;;;13.47;;
9248;SDS011;4660;41.768;26.198;2023-03-14T17:34:43;30.90;;;14.63;;
9248;SDS011;4660;41.768;26.198;2023-03-14T17:37:10;28.87;;;14.97;;
9248;SDS011;4660;41.768;26.198;2023-03-14T17:39:35;29.40;;;14.53;;
9248;SDS011;4660;41.768;26.198;2023-03-14T17:42:02;29.60;;;15.93;;
9248;SDS011;4660;41.768;26.198;2023-03-14T17:44:27;34.43;;;18.63;;
9248;SDS011;4660;41.768;26.198;2023-03-14T17:46:53;19.30;;;11.87;;
9248;SDS011;4660;41.768;26.198;2023-03-14T17:49:20;23.80;;;12.57;;
9248;SDS011;4660;41.768;26.198;2023-03-14T17:51:45;30.67;;;14.87;;
9248;SDS011;4660;41.768;26.198;2023-03-14T17:54:11;36.30;;;17.40;;
9248;SDS011;4660;41.768;26.198;2023-03-14T17:56:36;28.00;;;15.10;;
9248;SDS011;4660;41.768;26.198;2023-03-14T17:59:02;41.00;;;18.60;;
9248;SDS011;4660;41.768;26.198;2023-03-14T18:01:28;46.63;;;19.93;;
9248;SDS011;4660;41.768;26.198;2023-03-14T18:03:53;25.87;;;13.67;;
9248;SDS011;4660;41.768;26.198;2023-03-14T18:06:20;28.03;;;15.20;;
9248;SDS011;4660;41.768;26.198;2023-03-14T18:08:47;36.07;;;18.33;;
9248;SDS011;4660;41.768;26.198;2023-03-14T18:11:14;27.80;;;15.23;;
9248;SDS011;4660;41.768;26.198;2023-03-14T18:13:41;32.73;;;19.43;;
9248;SDS011;4660;41.768;26.198;2023-03-14T18:16:07;41.20;;;24.87;;
9248;SDS011;4660;41.768;26.198;2023-03-14T18:18:38;41.30;;;23.93;;